sensor_id;sensor_type;location;lat;lon;timestamp;temperature;humidity
37342;DHT22;58643;49.052;8.518;2023-06-24T10:44:47;27.00;68.50
37342;DHT22;58643;49.052;8.518;2023-06-24T10:47:13;27.70;66.70
37342;DHT22;58643;49.052;8.518;2023-06-24T10:49:38;28.50;65.40
37342;DHT22;58643;49.052;8.518;2023-06-24T10:52:06;29.00;63.40
37342;DHT22;58643;49.052;8.518;2023-06-24T10:54:33;29.30;62.50
37342;DHT22;58643;49.052;8.518;2023-06-24T10:56:58;29.50;61.30
37342;DHT22;58643;49.052;8.518;2023-06-24T10:59:24;29.50;60.90
37342;DHT22;58643;49.052;8.518;2023-06-24T11:01:53;29.40;60.00
37342;DHT22;58643;49.052;8.518;2023-06-24T11:04:19;29.50;60.60
37342;DHT22;58643;49.052;8.518;2023-06-24T11:07:01;29.30;62.50
37342;DHT22;58643;49.052;8.518;2023-06-24T11:09:27;29.50;62.80
37342;DHT22;58643;49.052;8.518;2023-06-24T11:11:53;29.40;61.10
37342;DHT22;58643;49.052;8.518;2023-06-24T11:14:22;29.90;61.00
37342;DHT22;58643;49.052;8.518;2023-06-24T11:16:47;30.00;59.90
37342;DHT22;58643;49.052;8.518;2023-06-24T11:19:13;30.10;59.30
37342;DHT22;58643;49.052;8.518;2023-06-24T11:21:39;29.90;56.60
37342;DHT22;58643;49.052;8.518;2023-06-24T11:24:05;30.30;58.30
37342;DHT22;58643;49.052;8.518;2023-06-24T11:26:31;30.80;57.90
37342;DHT22;58643;49.052;8.518;2023-06-24T11:28:57;31.10;56.90
37342;DHT22;58643;49.052;8.518;2023-06-24T11:31:26;31.00;55.60
37342;DHT22;58643;49.052;8.518;2023-06-24T11:33:51;30.30;57.50
37342;DHT22;58643;49.052;8.518;2023-06-24T11:36:20;30.20;58.10
37342;DHT22;58643;49.052;8.518;2023-06-24T11:38:46;30.10;58.00
37342;DHT22;58643;49.052;8.518;2023-06-24T11:41:12;30.60;56.90
37342;DHT22;58643;49.052;8.518;2023-06-24T11:43:43;30.80;56.90
37342;DHT22;58643;49.052;8.518;2023-06-24T11:46:08;31.00;56.80
37342;DHT22;58643;49.052;8.518;2023-06-24T11:48:39;31.20;56.50
37342;DHT22;58643;49.052;8.518;2023-06-24T11:51:12;31.10;56.10
37342;DHT22;58643;49.052;8.518;2023-06-24T11:53:45;30.70;55.00
37342;DHT22;58643;49.052;8.518;2023-06-24T11:56:12;31.10;54.60
37342;DHT22;58643;49.052;8.518;2023-06-24T11:58:39;30.90;54.80
37342;DHT22;58643;49.052;8.518;2023-06-24T12:01:06;31.50;54.30
37342;DHT22;58643;49.052;8.518;2023-06-24T12:03:32;32.30;54.10
37342;DHT22;58643;49.052;8.518;2023-06-24T12:05:59;32.30;52.70
37342;DHT22;58643;49.052;8.518;2023-06-24T12:08:25;32.60;51.10
37342;DHT22;58643;49.052;8.518;2023-06-24T12:10:52;33.00;50.30
37342;DHT22;58643;49.052;8.518;2023-06-24T12:13:18;33.50;50.40
37342;DHT22;58643;49.052;8.518;2023-06-24T12:15:43;33.60;51.00
37342;DHT22;58643;49.052;8.518;2023-06-24T12:18:09;33.80;51.00
37342;DHT22;58643;49.052;8.518;2023-06-24T12:20:35;34.00;51.40
37342;DHT22;58643;49.052;8.518;2023-06-24T12:23:05;34.60;50.80
37342;DHT22;58643;49.052;8.518;2023-06-24T12:25:31;35.00;51.60
37342;DHT22;58643;49.052;8.518;2023-06-24T12:27:57;34.70;50.30
37342;DHT22;58643;49.052;8.518;2023-06-24T12:30:24;35.00;51.00
37342;DHT22;58643;49.052;8.518;2023-06-24T12:32:51;35.00;50.40
37342;DHT22;58643;49.052;8.518;2023-06-24T12:35:17;35.30;49.60
37342;DHT22;58643;49.052;8.518;2023-06-24T12:37:42;34.70;51.10
37342;DHT22;58643;49.052;8.518;2023-06-24T12:40:10;35.60;49.30
37342;DHT22;58643;49.052;8.518;2023-06-24T12:42:36;36.20;48.80
37342;DHT22;58643;49.052;8.518;2023-06-24T12:45:02;36.60;48.40
37342;DHT22;58643;49.052;8.518;2023-06-24T12:47:27;37.00;48.40
37342;DHT22;58643;49.052;8.518;2023-06-24T12:49:53;37.40;48.50
37342;DHT22;58643;49.052;8.518;2023-06-24T12:52:19;36.30;46.30
37342;DHT22;58643;49.052;8.518;2023-06-24T12:54:44;35.90;47.10
37342;DHT22;58643;49.052;8.518;2023-06-24T12:57:10;36.10;46.40
37342;DHT22;58643;49.052;8.518;2023-06-24T12:59:36;36.10;47.20
37342;DHT22;58643;49.052;8.518;2023-06-24T13:02:01;36.40;46.20
37342;DHT22;58643;49.052;8.518;2023-06-24T13:04:27;36.90;46.60
37342;DHT22;58643;49.052;8.518;2023-06-24T13:06:53;37.90;44.80
37342;DHT22;58643;49.052;8.518;2023-06-24T13:09:19;38.60;45.40
37342;DHT22;58643;49.052;8.518;2023-06-24T13:11:44;37.70;46.10
37342;DHT22;58643;49.052;8.518;2023-06-24T13:14:10;37.90;46.10
37342;DHT22;58643;49.052;8.518;2023-06-24T13:16:36;37.80;45.20
37342;DHT22;58643;49.052;8.518;2023-06-24T13:19:02;37.40;45.10
37342;DHT22;58643;49.052;8.518;2023-06-24T13:21:28;37.10;45.20
37342;DHT22;58643;49.052;8.518;2023-06-24T13:23:54;36.90;45.70
37342;DHT22;58643;49.052;8.518;2023-06-24T13:26:19;37.20;44.50
37342;DHT22;58643;49.052;8.518;2023-06-24T13:28:45;38.30;45.50
37342;DHT22;58643;49.052;8.518;2023-06-24T13:31:11;38.30;44.60
37342;DHT22;58643;49.052;8.518;2023-06-24T13:33:37;39.30;46.00
37342;DHT22;58643;49.052;8.518;2023-06-24T13:36:04;39.40;44.00
37342;DHT22;58643;49.052;8.518;2023-06-24T13:38:30;39.40;43.80
37342;DHT22;58643;49.052;8.518;2023-06-24T13:40:56;39.90;43.30
37342;DHT22;58643;49.052;8.518;2023-06-24T13:43:21;39.90;41.20
37342;DHT22;58643;49.052;8.518;2023-06-24T13:45:47;40.40;42.10
37342;DHT22;58643;49.052;8.518;2023-06-24T13:48:13;40.70;41.90
37342;DHT22;58643;49.052;8.518;2023-06-24T13:50:38;41.00;41.90
37342;DHT22;58643;49.052;8.518;2023-06-24T13:53:04;40.50;42.00
37342;DHT22;58643;49.052;8.518;2023-06-24T13:55:29;39.10;42.30
37342;DHT22;58643;49.052;8.518;2023-06-24T13:57:56;38.20;42.90
37342;DHT22;58643;49.052;8.518;2023-06-24T14:00:22;38.40;43.10
37342;DHT22;58643;49.052;8.518;2023-06-24T14:02:48;37.30;45.40
37342;DHT22;58643;49.052;8.518;2023-06-24T14:05:13;37.60;43.50
37342;DHT22;58643;49.052;8.518;2023-06-24T14:07:39;38.70;42.60
37342;DHT22;58643;49.052;8.518;2023-06-24T14:10:05;38.70;42.70
37342;DHT22;58643;49.052;8.518;2023-06-24T14:12:30;39.20;41.80
37342;DHT22;58643;49.052;8.518;2023-06-24T14:14:57;39.80;41.60
37342;DHT22;58643;49.052;8.518;2023-06-24T14:17:23;40.60;41.50
37342;DHT22;58643;49.052;8.518;2023-06-24T14:19:49;40.00;42.00
37342;DHT22;58643;49.052;8.518;2023-06-24T14:22:15;39.60;42.30
37342;DHT22;58643;49.052;8.518;2023-06-24T14:24:42;38.60;43.30
37342;DHT22;58643;49.052;8.518;2023-06-24T14:27:08;38.50;44.00
37342;DHT22;58643;49.052;8.518;2023-06-24T14:29:33;38.80;42.90
37342;DHT22;58643;49.052;8.518;2023-06-24T14:31:59;38.30;43.00
37342;DHT22;58643;49.052;8.518;2023-06-24T14:34:25;39.30;42.30
37342;DHT22;58643;49.052;8.518;2023-06-24T14:36:50;39.80;41.70
37342;DHT22;58643;49.052;8.518;2023-06-24T14:39:16;40.40;41.60
37342;DHT22;58643;49.052;8.518;2023-06-24T14:41:44;41.10;41.40
37342;DHT22;58643;49.052;8.518;2023-06-24T14:44:10;40.40;41.00
37342;DHT22;58643;49.052;8.518;2023-06-24T14:46:36;39.80;41.60
37342;DHT22;58643;49.052;8.518;2023-06-24T14:49:01;40.30;41.40
37342;DHT22;58643;49.052;8.518;2023-06-24T14:51:27;41.20;42.10
37342;DHT22;58643;49.052;8.518;2023-06-24T14:53:53;41.60;40.90
37342;DHT22;58643;49.052;8.518;2023-06-24T14:56:18;41.30;41.20
37342;DHT22;58643;49.052;8.518;2023-06-24T14:58:44;40.90;40.40
37342;DHT22;58643;49.052;8.518;2023-06-24T15:01:09;41.10;40.60
37342;DHT22;58643;49.052;8.518;2023-06-24T15:03:35;41.00;41.20
37342;DHT22;58643;49.052;8.518;2023-06-24T15:06:01;40.10;40.90
37342;DHT22;58643;49.052;8.518;2023-06-24T15:08:26;39.30;40.50
37342;DHT22;58643;49.052;8.518;2023-06-24T15:10:52;39.80;41.20
37342;DHT22;58643;49.052;8.518;2023-06-24T15:13:18;40.50;41.40
37342;DHT22;58643;49.052;8.518;2023-06-24T15:15:44;40.80;40.60
37342;DHT22;58643;49.052;8.518;2023-06-24T15:18:09;40.20;40.60
37342;DHT22;58643;49.052;8.518;2023-06-24T15:20:35;39.60;41.40
37342;DHT22;58643;49.052;8.518;2023-06-24T15:23:01;39.90;41.70
37342;DHT22;58643;49.052;8.518;2023-06-24T15:25:26;40.10;41.10
37342;DHT22;58643;49.052;8.518;2023-06-24T15:27:53;37.20;38.20
37342;DHT22;58643;49.052;8.518;2023-06-24T15:30:18;40.70;41.00
37342;DHT22;58643;49.052;8.518;2023-06-24T15:32:44;40.40;41.40
37342;DHT22;58643;49.052;8.518;2023-06-24T15:35:11;40.90;40.60
37342;DHT22;58643;49.052;8.518;2023-06-24T15:37:37;40.50;40.70
37342;DHT22;58643;49.052;8.518;2023-06-24T15:40:03;40.20;41.00
37342;DHT22;58643;49.052;8.518;2023-06-24T15:42:28;40.50;41.10
37342;DHT22;58643;49.052;8.518;2023-06-24T15:44:54;39.80;41.60
37342;DHT22;58643;49.052;8.518;2023-06-24T15:47:19;40.50;41.80
37342;DHT22;58643;49.052;8.518;2023-06-24T15:49:45;40.80;41.40
37342;DHT22;58643;49.052;8.518;2023-06-24T15:52:11;40.90;40.40
37342;DHT22;58643;49.052;8.518;2023-06-24T15:54:36;40.00;41.20
37342;DHT22;58643;49.052;8.518;2023-06-24T15:57:02;40.20;41.10
37342;DHT22;58643;49.052;8.518;2023-06-24T15:59:27;40.20;41.00
37342;DHT22;58643;49.052;8.518;2023-06-24T16:01:53;40.20;41.50
37342;DHT22;58643;49.052;8.518;2023-06-24T16:04:18;40.70;40.30
37342;DHT22;58643;49.052;8.518;2023-06-24T16:06:44;40.20;41.00
37342;DHT22;58643;49.052;8.518;2023-06-24T16:09:10;39.80;41.40
37342;DHT22;58643;49.052;8.518;2023-06-24T16:11:35;39.70;41.40
37342;DHT22;58643;49.052;8.518;2023-06-24T16:14:01;39.90;41.50
37342;DHT22;58643;49.052;8.518;2023-06-24T16:16:26;39.90;41.40
37342;DHT22;58643;49.052;8.518;2023-06-24T16:18:52;40.30;40.90
37342;DHT22;58643;49.052;8.518;2023-06-24T16:21:17;40.10;41.60
37342;DHT22;58643;49.052;8.518;2023-06-24T16:23:43;40.30;41.60
37342;DHT22;58643;49.052;8.518;2023-06-24T16:26:09;40.40;41.40
37342;DHT22;58643;49.052;8.518;2023-06-24T16:28:35;39.10;42.00
37342;DHT22;58643;49.052;8.518;2023-06-24T16:31:00;39.20;42.10
37342;DHT22;58643;49.052;8.518;2023-06-24T16:33:26;39.50;41.80
37342;DHT22;58643;49.052;8.518;2023-06-24T16:35:51;39.80;42.20
37342;DHT22;58643;49.052;8.518;2023-06-24T16:38:17;39.90;41.20
37342;DHT22;58643;49.052;8.518;2023-06-24T16:40:42;40.00;41.50
